< < Back
Terminal Aerodrome Forecast


Current Version              Previous Versions:   1  2  3  4  5  6  7  8  9  

Terminal Aerodrome Forecast

019
FTUS42 KJAX 301100
TAFSSI
TAF
KSSI 301120Z 3012/3112 33006KT P6SM SCT015 SCT030
     FM301700 03008KT P6SM VCSH SCT020 BKN040
     FM302300 36006KT P6SM SCT020 SCT040=



Latest METAR

212
SAUS70 KWBC 310400 RRF
MTRSSI
METAR KSSI 310353Z AUTO 36003KT 10SM CLR 18/16 A2990 RMK AO2 SLP126
T01780161


USA.gov is the U.S. government's official web portal to all federal, state and local government web resources and services.